createdAt,value
2017-09-11T00:00:41.897Z,0
2017-09-11T00:01:41.884Z,0
2017-09-11T00:02:41.891Z,0
2017-09-11T00:03:41.970Z,0
2017-09-11T00:04:41.930Z,0
2017-09-11T00:05:41.990Z,0
2017-09-11T00:06:42.057Z,0
2017-09-11T00:07:41.923Z,0
2017-09-11T00:08:41.975Z,0
2017-09-11T00:09:41.979Z,0
2017-09-11T00:10:41.928Z,0
2017-09-11T00:11:41.930Z,0
2017-09-11T00:12:41.886Z,0
2017-09-11T00:13:41.931Z,0
2017-09-11T00:14:41.982Z,0
2017-09-11T00:15:41.885Z,0
2017-09-11T00:16:42.003Z,0
2017-09-11T00:17:41.936Z,0
2017-09-11T00:18:41.981Z,0
2017-09-11T00:19:41.932Z,0
2017-09-11T00:20:41.944Z,0
2017-09-11T00:21:41.888Z,0
2017-09-11T00:22:41.918Z,0
2017-09-11T00:23:41.972Z,0
2017-09-11T00:24:42.004Z,0
2017-09-11T00:25:41.980Z,0
2017-09-11T00:26:41.983Z,0
2017-09-11T00:27:41.944Z,0
2017-09-11T00:28:41.984Z,0
2017-09-11T00:29:41.989Z,0
2017-09-11T00:31:41.941Z,0
2017-09-11T00:32:41.993Z,0
2017-09-11T00:33:41.978Z,0
2017-09-11T00:34:41.886Z,0
2017-09-11T00:35:41.993Z,0
2017-09-11T00:36:41.913Z,0
2017-09-11T00:37:42.093Z,0
2017-09-11T00:38:41.940Z,0
2017-09-11T00:39:41.955Z,0
2017-09-11T00:40:41.918Z,0
2017-09-11T00:41:41.956Z,0
2017-09-11T00:42:41.987Z,0
2017-09-11T00:43:41.997Z,0
2017-09-11T00:44:42.002Z,0
2017-09-11T00:45:41.930Z,0
2017-09-11T00:46:41.951Z,0
2017-09-11T00:47:41.951Z,0
2017-09-11T00:48:42.039Z,0
2017-09-11T00:49:42.005Z,0
2017-09-11T00:50:41.998Z,0
2017-09-11T00:51:41.955Z,0
2017-09-11T00:52:41.953Z,0
2017-09-11T00:53:41.955Z,0
2017-09-11T00:54:41.966Z,0
2017-09-11T00:55:41.955Z,0
2017-09-11T00:56:41.964Z,0
2017-09-11T00:57:42.008Z,0
2017-09-11T00:58:42.011Z,0
2017-09-11T00:59:41.972Z,0
2017-09-11T01:00:42.002Z,0
2017-09-11T01:01:41.962Z,0
2017-09-11T01:02:41.939Z,0
2017-09-11T01:03:41.975Z,0
2017-09-11T01:04:41.958Z,0
2017-09-11T01:05:42.011Z,0
2017-09-11T01:06:42.008Z,0
2017-09-11T01:07:42.014Z,0
2017-09-11T01:08:41.967Z,0
2017-09-11T01:09:42.008Z,0
2017-09-11T01:10:42.019Z,0
2017-09-11T01:11:41.992Z,0
2017-09-11T01:12:42.018Z,0
2017-09-11T01:13:41.907Z,0
2017-09-11T01:14:41.930Z,0
2017-09-11T01:15:41.961Z,0
2017-09-11T01:16:41.910Z,0
2017-09-11T01:17:41.943Z,0
2017-09-11T01:18:41.964Z,0
2017-09-11T01:19:41.907Z,0
2017-09-11T01:20:41.936Z,0
2017-09-11T01:21:41.908Z,0
2017-09-11T01:22:41.981Z,0
2017-09-11T01:23:42.021Z,0
2017-09-11T01:24:42.019Z,0
2017-09-11T01:25:41.981Z,0
2017-09-11T01:26:42.022Z,0
2017-09-11T01:27:41.984Z,0
2017-09-11T01:28:42.024Z,0
2017-09-11T01:29:41.979Z,0
2017-09-11T01:30:41.985Z,0
2017-09-11T01:31:41.983Z,0
2017-09-11T01:32:41.980Z,0
2017-09-11T01:33:42.030Z,0
2017-09-11T01:34:42.009Z,0
2017-09-11T01:35:41.963Z,0
2017-09-11T01:36:41.981Z,0
2017-09-11T01:37:41.933Z,0
2017-09-11T01:38:41.983Z,0
2017-09-11T01:39:41.963Z,0
2017-09-11T01:40:42.053Z,0
2017-09-11T01:41:41.986Z,0
2017-09-11T01:42:41.997Z,0
2017-09-11T01:43:41.986Z,0
2017-09-11T01:44:41.962Z,0
2017-09-11T01:45:41.997Z,0
2017-09-11T01:46:42.023Z,0
2017-09-11T01:47:42.022Z,0
2017-09-11T01:48:41.959Z,0
2017-09-11T01:49:42.023Z,0
2017-09-11T01:50:41.951Z,0
2017-09-11T01:51:41.984Z,0
2017-09-11T01:52:41.995Z,0
2017-09-11T01:53:41.960Z,0
2017-09-11T01:54:41.986Z,0
2017-09-11T01:55:41.929Z,0
2017-09-11T01:56:41.929Z,0
2017-09-11T01:57:42.009Z,0
2017-09-11T01:58:41.990Z,0
2017-09-11T01:59:41.991Z,0
2017-09-11T02:00:41.957Z,0
2017-09-11T02:01:41.956Z,0
2017-09-11T02:02:41.960Z,0
2017-09-11T02:03:41.932Z,0
2017-09-11T02:04:42.045Z,0
2017-09-11T02:05:42.044Z,0
2017-09-11T02:06:42.054Z,0
2017-09-11T02:07:42.047Z,0
2017-09-11T02:08:42.069Z,0
2017-09-11T02:09:42.069Z,0
2017-09-11T02:10:42.051Z,0
2017-09-11T02:11:42.008Z,0
2017-09-11T02:12:42.049Z,0
2017-09-11T02:13:42.007Z,0
2017-09-11T02:14:42.043Z,0
2017-09-11T02:15:41.994Z,0
2017-09-11T02:16:41.977Z,0
2017-09-11T02:17:41.983Z,0
2017-09-11T02:18:42.042Z,0
2017-09-11T02:19:41.974Z,0
2017-09-11T02:20:41.999Z,0
2017-09-11T02:21:42.005Z,0
2017-09-11T02:22:41.956Z,0
2017-09-11T02:23:41.951Z,0
2017-09-11T02:24:41.970Z,0
2017-09-11T02:25:41.921Z,0
2017-09-11T02:26:41.934Z,0
2017-09-11T02:27:41.927Z,0
2017-09-11T02:28:41.937Z,0
2017-09-11T02:29:41.999Z,0
2017-09-11T02:30:41.933Z,0
2017-09-11T02:31:41.977Z,0
2017-09-11T02:32:41.954Z,0
2017-09-11T02:33:41.933Z,0
2017-09-11T02:34:41.956Z,0
2017-09-11T02:35:41.979Z,0
2017-09-11T02:36:41.989Z,0
2017-09-11T02:37:41.953Z,0
2017-09-11T02:38:41.986Z,0
2017-09-11T02:39:41.985Z,0
2017-09-11T02:40:41.956Z,0
2017-09-11T02:41:42.017Z,0
2017-09-11T02:42:41.958Z,0
2017-09-11T02:43:41.984Z,0
2017-09-11T02:44:41.903Z,0
2017-09-11T02:45:41.898Z,0
2017-09-11T02:46:41.952Z,0
2017-09-11T02:47:41.903Z,0
2017-09-11T02:48:41.976Z,0
2017-09-11T02:49:41.979Z,0
2017-09-11T02:50:41.947Z,0
2017-09-11T02:51:41.964Z,0
2017-09-11T02:52:41.963Z,0
2017-09-11T02:53:41.981Z,0
2017-09-11T02:54:42.030Z,0
2017-09-11T02:55:42.009Z,0
2017-09-11T02:56:42.092Z,0
2017-09-11T02:57:42.026Z,0
2017-09-11T02:58:41.994Z,0
2017-09-11T02:59:42.030Z,0
2017-09-11T03:00:42.046Z,0
2017-09-11T03:01:42.095Z,0
2017-09-11T03:02:42.042Z,0
2017-09-11T03:03:42.040Z,0
2017-09-11T03:04:42.032Z,0
2017-09-11T03:05:42.048Z,0
2017-09-11T03:06:42.081Z,0
2017-09-11T03:07:42.036Z,0
2017-09-11T03:08:42.036Z,0
2017-09-11T03:09:42.038Z,0
2017-09-11T03:10:42.088Z,0
2017-09-11T03:11:42.041Z,0
2017-09-11T03:12:42.040Z,0
2017-09-11T03:13:42.026Z,0
2017-09-11T03:14:42.008Z,0
2017-09-11T03:15:42.079Z,0
2017-09-11T03:16:42.077Z,0
2017-09-11T03:17:42.083Z,0
2017-09-11T03:18:42.076Z,0
2017-09-11T03:19:42.046Z,0
2017-09-11T03:20:42.083Z,0
2017-09-11T03:21:42.080Z,0
2017-09-11T03:22:42.079Z,0
2017-09-11T03:23:41.985Z,0
2017-09-11T03:24:41.983Z,0
2017-09-11T03:25:42.115Z,0
2017-09-11T03:26:42.014Z,0
2017-09-11T03:27:42.015Z,0
2017-09-11T03:28:41.985Z,0
2017-09-11T03:29:41.986Z,0
2017-09-11T03:30:42.017Z,0
2017-09-11T03:31:42.019Z,0
2017-09-11T03:32:42.018Z,0
2017-09-11T03:33:41.989Z,0
2017-09-11T03:34:42.088Z,0
2017-09-11T03:35:42.014Z,0
2017-09-11T03:36:42.066Z,0
2017-09-11T03:37:42.029Z,0
2017-09-11T03:38:42.022Z,0
2017-09-11T03:39:42.026Z,0
2017-09-11T03:40:42.072Z,0
2017-09-11T03:41:42.021Z,0
2017-09-11T03:42:42.038Z,0
2017-09-11T03:43:42.091Z,0
2017-09-11T03:44:42.046Z,0
2017-09-11T03:45:42.005Z,0
2017-09-11T03:46:41.975Z,0
2017-09-11T03:47:42.148Z,0
2017-09-11T03:48:42.074Z,0
2017-09-11T03:49:42.014Z,0
2017-09-11T03:50:42.064Z,0
2017-09-11T03:51:41.974Z,0
2017-09-11T03:52:42.005Z,0
2017-09-11T03:53:42.010Z,0
2017-09-11T03:54:42.003Z,0
2017-09-11T03:55:42.065Z,0
2017-09-11T03:56:42.127Z,0
2017-09-11T03:57:42.064Z,0
2017-09-11T03:58:42.027Z,0
2017-09-11T03:59:42.063Z,0
2017-09-11T04:00:42.066Z,0
2017-09-11T04:01:42.031Z,0
2017-09-11T04:02:42.030Z,0
2017-09-11T04:03:42.065Z,0
2017-09-11T04:04:42.071Z,0
2017-09-11T04:05:42.021Z,0
2017-09-11T04:06:42.074Z,0
2017-09-11T04:07:42.074Z,0
2017-09-11T04:08:42.074Z,0
2017-09-11T04:09:42.122Z,0
2017-09-11T04:10:42.177Z,0
2017-09-11T04:11:42.073Z,0
2017-09-11T04:12:42.077Z,0
2017-09-11T04:13:42.123Z,0
2017-09-11T04:14:42.039Z,0
2017-09-11T04:15:42.043Z,0
2017-09-11T04:17:42.025Z,0
2017-09-11T04:18:42.073Z,0
2017-09-11T04:19:42.091Z,0
2017-09-11T04:20:42.092Z,0
2017-09-11T04:21:42.088Z,0
2017-09-11T04:22:42.045Z,0
2017-09-11T04:23:42.026Z,0
2017-09-11T04:24:42.129Z,0
2017-09-11T04:25:42.128Z,0
2017-09-11T04:26:42.081Z,0
2017-09-11T04:27:42.127Z,0
2017-09-11T04:28:42.084Z,0
2017-09-11T04:29:42.137Z,0
2017-09-11T04:30:42.134Z,0
2017-09-11T04:31:42.091Z,0
2017-09-11T04:32:42.094Z,0
2017-09-11T04:33:42.127Z,0
2017-09-11T04:34:42.092Z,0
2017-09-11T04:35:42.127Z,0
2017-09-11T04:36:42.123Z,0
2017-09-11T04:37:42.104Z,0
2017-09-11T04:38:42.039Z,0
2017-09-11T04:39:42.132Z,0
2017-09-11T04:40:42.160Z,0
2017-09-11T04:41:42.036Z,0
2017-09-11T04:42:42.065Z,0
2017-09-11T04:43:42.107Z,0
2017-09-11T04:44:42.132Z,0
2017-09-11T04:45:42.122Z,0
2017-09-11T04:47:42.122Z,5
2017-09-11T04:48:42.069Z,5
2017-09-11T04:49:42.118Z,5
2017-09-11T04:50:42.041Z,5
2017-09-11T04:51:42.071Z,5
2017-09-11T04:52:42.099Z,11
2017-09-11T04:53:42.143Z,11
2017-09-11T04:54:42.056Z,11
2017-09-11T04:55:42.053Z,11
2017-09-11T04:56:42.052Z,11
2017-09-11T04:57:42.131Z,11
2017-09-11T04:58:41.981Z,16
2017-09-11T04:59:42.062Z,16
2017-09-11T05:00:42.040Z,16
2017-09-11T05:01:42.042Z,22
2017-09-11T05:02:42.028Z,22
2017-09-11T05:03:42.055Z,22
2017-09-11T05:04:42.073Z,22
2017-09-11T05:05:42.060Z,28
2017-09-11T05:06:42.065Z,28
2017-09-11T05:07:42.154Z,33
2017-09-11T05:08:42.103Z,33
2017-09-11T05:09:42.067Z,39
2017-09-11T05:10:42.115Z,39
2017-09-11T05:11:42.159Z,45
2017-09-11T05:12:42.161Z,45
2017-09-11T05:13:42.110Z,45
2017-09-11T05:14:42.077Z,45
2017-09-11T05:15:42.110Z,50
2017-09-11T05:16:42.084Z,50
2017-09-11T05:17:42.079Z,56
2017-09-11T05:18:42.079Z,61
2017-09-11T05:19:42.124Z,67
2017-09-11T05:20:42.046Z,67
2017-09-11T05:21:42.118Z,61
2017-09-11T05:22:42.078Z,56
2017-09-11T05:23:42.115Z,50
2017-09-11T05:24:42.118Z,50
2017-09-11T05:25:42.085Z,56
2017-09-11T05:26:42.161Z,61
2017-09-11T05:27:42.083Z,67
2017-09-11T05:28:42.161Z,73
2017-09-11T05:29:42.147Z,78
2017-09-11T05:30:42.067Z,84
2017-09-11T05:31:42.123Z,95
2017-09-11T05:32:42.098Z,112
2017-09-11T05:33:42.131Z,118
2017-09-11T05:34:42.083Z,129
2017-09-11T05:35:42.070Z,135
2017-09-11T05:36:42.094Z,140
2017-09-11T05:37:42.083Z,140
2017-09-11T05:38:42.083Z,146
2017-09-11T05:39:42.092Z,157
2017-09-11T05:40:42.070Z,163
2017-09-11T05:41:42.015Z,157
2017-09-11T05:42:42.095Z,140
2017-09-11T05:43:42.090Z,129
2017-09-11T05:44:42.170Z,129
2017-09-11T05:45:42.135Z,123
2017-09-11T05:46:42.079Z,118
2017-09-11T05:47:42.131Z,118
2017-09-11T05:48:42.108Z,118
2017-09-11T05:49:42.135Z,112
2017-09-11T05:50:42.090Z,106
2017-09-11T05:51:42.113Z,95
2017-09-11T05:52:42.176Z,90
2017-09-11T05:53:42.100Z,90
2017-09-11T05:54:42.187Z,90
2017-09-11T05:55:42.143Z,90
2017-09-11T05:56:42.199Z,95
2017-09-11T05:57:42.132Z,112
2017-09-11T05:58:42.132Z,135
2017-09-11T05:59:42.190Z,157
2017-09-11T06:00:42.161Z,180
2017-09-11T06:01:42.135Z,202
2017-09-11T06:02:42.138Z,219
2017-09-11T06:03:42.142Z,219
2017-09-11T06:04:42.188Z,213
2017-09-11T06:05:42.081Z,213
2017-09-11T06:06:42.149Z,230
2017-09-11T06:07:42.171Z,258
2017-09-11T06:08:42.144Z,281
2017-09-11T06:09:42.174Z,315
2017-09-11T06:10:42.147Z,354
2017-09-11T06:11:42.190Z,382
2017-09-11T06:12:42.149Z,393
2017-09-11T06:13:42.145Z,376
2017-09-11T06:14:42.191Z,393
2017-09-11T06:15:42.190Z,416
2017-09-11T06:16:42.157Z,466
2017-09-11T06:17:42.110Z,489
2017-09-11T06:18:42.146Z,483
2017-09-11T06:19:42.110Z,478
2017-09-11T06:20:42.205Z,461
2017-09-11T06:21:42.164Z,433
2017-09-11T06:22:42.117Z,433
2017-09-11T06:23:42.103Z,438
2017-09-11T06:24:42.123Z,455
2017-09-11T06:25:42.114Z,495
2017-09-11T06:26:42.113Z,500
2017-09-11T06:27:42.087Z,523
2017-09-11T06:28:42.115Z,534
2017-09-11T06:29:42.117Z,534
2017-09-11T06:30:42.088Z,534
2017-09-11T06:31:42.092Z,551
2017-09-11T06:32:42.118Z,568
2017-09-11T06:33:42.127Z,545
2017-09-11T06:34:42.204Z,528
2017-09-11T06:35:42.210Z,534
2017-09-11T06:36:42.158Z,523
2017-09-11T06:37:42.209Z,461
2017-09-11T06:38:42.140Z,416
2017-09-11T06:39:42.228Z,393
2017-09-11T06:40:42.203Z,388
2017-09-11T06:41:42.214Z,410
2017-09-11T06:42:42.207Z,393
2017-09-11T06:43:42.164Z,405
2017-09-11T06:44:42.124Z,433
2017-09-11T06:45:42.125Z,489
2017-09-11T06:46:42.098Z,528
2017-09-11T06:47:42.102Z,506
2017-09-11T06:48:42.125Z,472
2017-09-11T06:49:42.099Z,433
2017-09-11T06:50:42.159Z,421
2017-09-11T06:51:42.161Z,399
2017-09-11T06:52:42.163Z,399
2017-09-11T06:53:42.106Z,410
2017-09-11T06:54:42.106Z,393
2017-09-11T06:55:42.132Z,388
2017-09-11T06:56:42.105Z,433
2017-09-11T06:57:42.133Z,472
2017-09-11T06:58:42.170Z,506
2017-09-11T06:59:42.135Z,506
2017-09-11T07:00:42.169Z,517
2017-09-11T07:01:42.141Z,500
2017-09-11T07:02:42.140Z,466
2017-09-11T07:03:42.245Z,433
2017-09-11T07:04:42.179Z,427
2017-09-11T07:05:42.170Z,410
2017-09-11T07:06:42.138Z,388
2017-09-11T07:07:42.143Z,360
2017-09-11T07:08:42.140Z,360
2017-09-11T07:09:42.115Z,376
2017-09-11T07:10:42.178Z,393
2017-09-11T07:11:42.138Z,399
2017-09-11T07:12:42.117Z,399
2017-09-11T07:13:42.180Z,427
2017-09-11T07:14:42.108Z,472
2017-09-11T07:15:42.104Z,511
2017-09-11T07:16:42.137Z,545
2017-09-11T07:17:42.120Z,573
2017-09-11T07:18:42.122Z,590
2017-09-11T07:19:42.144Z,607
2017-09-11T07:20:42.125Z,624
2017-09-11T07:21:42.137Z,607
2017-09-11T07:22:42.102Z,601
2017-09-11T07:23:42.123Z,545
2017-09-11T07:24:42.153Z,483
2017-09-11T07:25:42.158Z,534
2017-09-11T07:26:42.273Z,540
2017-09-11T07:27:42.187Z,506
2017-09-11T07:28:42.099Z,461
2017-09-11T07:29:42.151Z,438
2017-09-11T07:30:42.155Z,455
2017-09-11T07:31:42.141Z,421
2017-09-11T07:32:42.138Z,478
2017-09-11T07:33:42.105Z,556
2017-09-11T07:34:42.234Z,562
2017-09-11T07:35:42.243Z,613
2017-09-11T07:36:42.195Z,618
2017-09-11T07:37:42.202Z,635
2017-09-11T07:38:42.146Z,697
2017-09-11T07:39:42.200Z,821
2017-09-11T07:40:42.180Z,945
2017-09-11T07:41:42.185Z,1057
2017-09-11T07:42:42.176Z,1085
2017-09-11T07:43:42.222Z,973
2017-09-11T07:44:42.161Z,928
2017-09-11T07:45:42.141Z,922
2017-09-11T07:46:42.140Z,961
2017-09-11T07:47:42.205Z,1085
2017-09-11T07:48:42.180Z,1057
2017-09-11T07:49:42.146Z,1012
2017-09-11T07:50:42.200Z,939
2017-09-11T07:51:42.167Z,984
2017-09-11T07:52:42.229Z,1063
2017-09-11T07:53:42.243Z,1125
2017-09-11T07:54:42.169Z,1108
2017-09-11T07:55:42.194Z,1001
2017-09-11T07:56:42.202Z,933
2017-09-11T07:57:42.172Z,1001
2017-09-11T07:58:42.204Z,1243
2017-09-11T07:59:42.168Z,1395
2017-09-11T08:00:42.206Z,1456
2017-09-11T08:01:42.171Z,1586
2017-09-11T08:02:42.207Z,1563
2017-09-11T08:03:42.201Z,1378
2017-09-11T08:04:42.209Z,1288
2017-09-11T08:05:42.196Z,1108
2017-09-11T08:06:42.216Z,973
2017-09-11T08:07:42.208Z,1023
2017-09-11T08:08:42.196Z,1068
2017-09-11T08:09:42.287Z,956
2017-09-11T08:10:42.219Z,916
2017-09-11T08:11:42.283Z,810
2017-09-11T08:12:42.224Z,911
2017-09-11T08:13:42.200Z,1040
2017-09-11T08:14:42.222Z,1001
2017-09-11T08:15:42.186Z,1113
2017-09-11T08:16:42.259Z,1119
2017-09-11T08:18:42.266Z,1108
2017-09-11T08:19:42.223Z,1170
2017-09-11T08:20:42.268Z,1231
2017-09-11T08:21:42.220Z,1170
2017-09-11T08:22:42.266Z,1175
2017-09-11T08:23:42.231Z,1203
2017-09-11T08:24:42.248Z,1096
2017-09-11T08:25:42.162Z,1125
2017-09-11T08:26:42.160Z,1305
2017-09-11T08:27:42.188Z,1406
2017-09-11T08:28:42.226Z,1524
2017-09-11T08:29:42.290Z,1440
2017-09-11T08:30:42.161Z,1456
2017-09-11T08:31:42.186Z,1327
2017-09-11T08:32:42.187Z,1130
2017-09-11T08:33:42.228Z,1192
2017-09-11T08:34:42.223Z,1209
2017-09-11T08:35:42.168Z,1130
2017-09-11T08:36:42.172Z,1040
2017-09-11T08:37:42.195Z,1029
2017-09-11T08:38:42.238Z,1366
2017-09-11T08:39:42.210Z,1366
2017-09-11T08:40:42.235Z,1282
2017-09-11T08:41:42.178Z,1411
2017-09-11T08:42:42.259Z,1276
2017-09-11T08:43:42.176Z,1170
2017-09-11T08:44:42.196Z,1479
2017-09-11T08:45:42.439Z,1490
2017-09-11T08:46:42.181Z,1305
2017-09-11T08:47:42.232Z,1428
2017-09-11T08:48:42.242Z,1400
2017-09-11T08:49:42.201Z,1243
2017-09-11T08:50:42.310Z,1237
2017-09-11T08:51:42.285Z,1147
2017-09-11T08:52:42.241Z,1209
2017-09-11T08:53:42.244Z,1018
2017-09-11T08:54:42.215Z,894
2017-09-11T08:55:42.293Z,849
2017-09-11T08:56:42.286Z,759
2017-09-11T08:57:42.238Z,686
2017-09-11T08:58:42.193Z,736
2017-09-11T08:59:42.192Z,511
2017-09-11T09:00:42.193Z,478
2017-09-11T09:01:42.206Z,461
2017-09-11T09:02:42.189Z,461
2017-09-11T09:03:42.245Z,466
2017-09-11T09:04:42.297Z,483
2017-09-11T09:05:42.194Z,573
2017-09-11T09:06:42.316Z,748
2017-09-11T09:07:42.253Z,579
2017-09-11T09:08:42.214Z,528
2017-09-11T09:09:42.296Z,483
2017-09-11T09:10:42.293Z,410
2017-09-11T09:11:42.248Z,343
2017-09-11T09:12:42.255Z,309
2017-09-11T09:13:42.254Z,286
2017-09-11T09:14:42.264Z,241
2017-09-11T09:15:42.252Z,281
2017-09-11T09:16:42.319Z,286
2017-09-11T09:17:42.204Z,371
2017-09-11T09:18:42.283Z,461
2017-09-11T09:19:42.260Z,528
2017-09-11T09:20:42.259Z,613
2017-09-11T09:21:42.224Z,770
2017-09-11T09:22:42.258Z,736
2017-09-11T09:23:42.237Z,759
2017-09-11T09:24:42.257Z,658
2017-09-11T09:25:42.270Z,703
2017-09-11T09:26:42.266Z,810
2017-09-11T09:27:42.294Z,832
2017-09-11T09:28:42.234Z,838
2017-09-11T09:29:42.240Z,804
2017-09-11T09:30:42.236Z,832
2017-09-11T09:31:42.246Z,933
2017-09-11T09:32:42.239Z,1057
2017-09-11T09:33:42.236Z,1186
2017-09-11T09:34:42.243Z,1344
2017-09-11T09:35:42.257Z,1473
2017-09-11T09:36:42.228Z,1569
2017-09-11T09:37:42.202Z,1546
2017-09-11T09:38:42.232Z,1513
2017-09-11T09:39:42.266Z,1513
2017-09-11T09:40:42.272Z,1485
2017-09-11T09:41:42.231Z,1383
2017-09-11T09:42:42.205Z,1288
2017-09-11T09:43:42.264Z,1254
2017-09-11T09:44:42.267Z,1305
2017-09-11T09:45:42.283Z,1400
2017-09-11T09:46:42.271Z,1423
2017-09-11T09:47:42.278Z,1456
2017-09-11T09:48:42.320Z,1693
2017-09-11T09:49:42.235Z,2041
2017-09-11T09:50:42.287Z,2340
2017-09-11T09:51:42.282Z,2491
2017-09-11T09:52:42.275Z,3054
2017-09-11T09:53:42.321Z,2818
2017-09-11T09:54:42.226Z,2514
2017-09-11T09:55:42.287Z,2581
2017-09-11T09:56:42.240Z,2621
2017-09-11T09:57:42.230Z,2323
2017-09-11T09:58:42.218Z,2064
2017-09-11T09:59:42.223Z,1980
2017-09-11T10:00:42.248Z,1991
2017-09-11T10:01:42.235Z,2025
2017-09-11T10:02:42.225Z,2205
2017-09-11T10:03:42.202Z,2413
2017-09-11T10:04:42.198Z,2542
2017-09-11T10:05:42.279Z,2531
2017-09-11T10:06:42.282Z,2683
2017-09-11T10:07:42.332Z,2818
2017-09-11T10:08:42.286Z,2581
2017-09-11T10:09:42.221Z,2480
2017-09-11T10:10:42.280Z,2475
2017-09-11T10:11:42.222Z,2610
2017-09-11T10:12:42.286Z,2795
2017-09-11T10:13:42.254Z,2896
2017-09-11T10:14:42.225Z,3093
2017-09-11T10:15:42.293Z,2930
2017-09-11T10:16:42.267Z,2829
2017-09-11T10:17:42.293Z,2745
2017-09-11T10:18:42.342Z,2486
2017-09-11T10:19:42.300Z,2216
2017-09-11T10:20:42.295Z,2171
2017-09-11T10:21:42.270Z,2103
2017-09-11T10:22:42.324Z,2019
2017-09-11T10:23:42.302Z,2047
2017-09-11T10:24:42.242Z,2137
2017-09-11T10:25:42.303Z,2081
2017-09-11T10:26:42.303Z,2109
2017-09-11T10:27:42.258Z,2210
2017-09-11T10:28:42.345Z,2295
2017-09-11T10:29:42.279Z,2435
2017-09-11T10:30:42.281Z,2598
2017-09-11T10:31:42.281Z,2598
2017-09-11T10:32:42.348Z,2542
2017-09-11T10:33:42.351Z,2531
2017-09-11T10:34:42.332Z,2491
2017-09-11T10:35:42.343Z,2559
2017-09-11T10:36:42.324Z,2626
2017-09-11T10:37:42.262Z,3172
2017-09-11T10:38:42.305Z,3965
2017-09-11T10:39:42.251Z,4421
2017-09-11T10:40:42.280Z,3324
2017-09-11T10:41:42.286Z,3476
2017-09-11T10:42:42.287Z,3290
2017-09-11T10:43:42.362Z,3105
2017-09-11T10:44:42.346Z,3611
2017-09-11T10:45:42.354Z,3436
2017-09-11T10:46:42.310Z,4123
2017-09-11T10:47:42.355Z,2885
2017-09-11T10:48:42.314Z,2356
2017-09-11T10:49:42.318Z,2148
2017-09-11T10:50:42.312Z,2036
2017-09-11T10:51:42.322Z,1957
2017-09-11T10:52:42.287Z,1935
2017-09-11T10:53:42.368Z,2047
2017-09-11T10:54:42.321Z,2182
2017-09-11T10:55:42.316Z,2356
2017-09-11T10:56:42.309Z,2632
2017-09-11T10:57:42.331Z,2272
2017-09-11T10:58:42.291Z,2171
2017-09-11T10:59:42.366Z,2193
2017-09-11T11:00:42.323Z,2272
2017-09-11T11:01:42.278Z,2283
2017-09-11T11:02:42.300Z,2390
2017-09-11T11:03:42.318Z,2700
2017-09-11T11:04:42.347Z,2868
2017-09-11T11:05:42.372Z,3375
2017-09-11T11:06:42.330Z,3988
2017-09-11T11:07:42.318Z,4567
2017-09-11T11:08:42.323Z,5146
2017-09-11T11:09:42.310Z,3273
2017-09-11T11:11:42.369Z,3903
2017-09-11T11:12:42.279Z,4550
2017-09-11T11:13:42.330Z,4083
2017-09-11T11:14:42.368Z,3870
2017-09-11T11:15:42.320Z,3110
2017-09-11T11:16:42.263Z,2998
2017-09-11T11:17:42.320Z,2947
2017-09-11T11:18:42.325Z,3138
2017-09-11T11:19:42.263Z,3060
2017-09-11T11:20:42.289Z,3751
2017-09-11T11:21:42.321Z,3375
2017-09-11T11:22:42.264Z,3217
2017-09-11T11:23:42.320Z,2739
2017-09-11T11:24:42.290Z,2536
2017-09-11T11:25:42.286Z,2221
2017-09-11T11:26:42.309Z,1845
2017-09-11T11:27:42.271Z,1372
2017-09-11T11:28:42.298Z,1226
2017-09-11T11:29:42.340Z,1265
2017-09-11T11:30:42.372Z,1366
2017-09-11T11:31:42.328Z,1906
2017-09-11T11:32:42.275Z,2891
2017-09-11T11:33:42.336Z,2863
2017-09-11T11:34:42.305Z,2930
2017-09-11T11:35:42.370Z,3341
2017-09-11T11:36:42.313Z,3093
2017-09-11T11:37:42.279Z,3043
2017-09-11T11:38:42.310Z,3223
2017-09-11T11:39:42.279Z,2452
2017-09-11T11:40:42.307Z,2295
2017-09-11T11:41:42.319Z,2475
2017-09-11T11:42:42.282Z,2283
2017-09-11T11:43:42.301Z,6091
2017-09-11T11:44:42.369Z,6153
2017-09-11T11:45:42.319Z,5973
2017-09-11T11:46:42.291Z,5681
2017-09-11T11:47:42.290Z,3543
2017-09-11T11:48:42.397Z,5388
2017-09-11T11:49:42.343Z,5383
2017-09-11T11:50:42.358Z,5248
2017-09-11T11:51:42.315Z,5169
2017-09-11T11:52:42.370Z,5045
2017-09-11T11:53:42.357Z,3555
2017-09-11T11:54:42.359Z,5146
2017-09-11T11:55:42.403Z,5203
2017-09-11T11:56:42.560Z,5293
2017-09-11T11:57:42.421Z,5315
2017-09-11T11:58:42.390Z,2019
2017-09-11T11:59:42.321Z,1878
2017-09-11T12:00:42.310Z,1760
2017-09-11T12:01:42.301Z,1766
2017-09-11T12:02:42.423Z,4995
2017-09-11T12:03:42.336Z,5017
2017-09-11T12:04:42.404Z,4916
2017-09-11T12:05:42.386Z,5000
2017-09-11T12:06:42.360Z,5113
2017-09-11T12:08:42.325Z,5028
2017-09-11T12:09:42.366Z,4753
2017-09-11T12:10:42.318Z,1580
2017-09-11T12:11:42.401Z,1350
2017-09-11T12:12:42.382Z,1372
2017-09-11T12:13:42.393Z,4989
2017-09-11T12:14:42.306Z,3870
2017-09-11T12:15:42.325Z,5658
2017-09-11T12:16:42.345Z,5580
2017-09-11T12:17:42.415Z,2908
2017-09-11T12:18:42.359Z,1473
2017-09-11T12:19:42.310Z,1372
2017-09-11T12:20:42.362Z,1507
2017-09-11T12:21:42.390Z,2536
2017-09-11T12:22:42.325Z,1951
2017-09-11T12:23:42.316Z,1479
2017-09-11T12:24:42.376Z,1243
2017-09-11T12:25:42.307Z,2075
2017-09-11T12:26:42.342Z,1400
2017-09-11T12:27:42.370Z,2874
2017-09-11T12:28:42.372Z,2767
2017-09-11T12:29:42.311Z,1451
2017-09-11T12:30:42.311Z,1327
2017-09-11T12:31:42.404Z,1271
2017-09-11T12:32:42.413Z,1434
2017-09-11T12:33:42.374Z,1603
2017-09-11T12:34:42.316Z,1653
2017-09-11T12:35:42.424Z,2120
2017-09-11T12:36:42.375Z,1890
2017-09-11T12:37:42.372Z,1749
2017-09-11T12:38:42.336Z,1597
2017-09-11T12:39:42.419Z,1546
2017-09-11T12:40:42.425Z,1546
2017-09-11T12:41:42.448Z,1473
2017-09-11T12:42:42.321Z,1383
2017-09-11T12:43:42.437Z,1299
2017-09-11T12:44:42.356Z,1293
2017-09-11T12:45:42.421Z,1282
2017-09-11T12:46:42.343Z,1237
2017-09-11T12:47:42.424Z,1198
2017-09-11T12:48:42.344Z,1108
2017-09-11T12:49:42.452Z,995
2017-09-11T12:50:42.382Z,860
2017-09-11T12:51:42.394Z,742
2017-09-11T12:52:42.437Z,663
2017-09-11T12:53:42.385Z,675
2017-09-11T12:54:42.347Z,742
2017-09-11T12:55:42.318Z,939
2017-09-11T12:56:42.315Z,1186
2017-09-11T12:57:42.383Z,2919
2017-09-11T12:58:42.324Z,4848
2017-09-11T12:59:42.347Z,4905
2017-09-11T13:00:42.353Z,1833
2017-09-11T13:01:42.385Z,1833
2017-09-11T13:02:42.386Z,1642
2017-09-11T13:03:42.382Z,1698
2017-09-11T13:04:42.387Z,3043
2017-09-11T13:05:42.401Z,3847
2017-09-11T13:06:42.369Z,4921
2017-09-11T13:07:42.365Z,4775
2017-09-11T13:08:42.440Z,4556
2017-09-11T13:09:42.464Z,4404
2017-09-11T13:10:42.389Z,4342
2017-09-11T13:11:42.356Z,4246
2017-09-11T13:12:42.446Z,4151
2017-09-11T13:13:42.391Z,4151
2017-09-11T13:14:42.443Z,4106
2017-09-11T13:15:42.442Z,4038
2017-09-11T13:16:42.348Z,3982
2017-09-11T13:17:42.451Z,3976
2017-09-11T13:18:42.343Z,3920
2017-09-11T13:19:42.473Z,3909
2017-09-11T13:20:42.401Z,3898
2017-09-11T13:21:42.399Z,3875
2017-09-11T13:22:42.429Z,3830
2017-09-11T13:23:42.404Z,3836
2017-09-11T13:24:42.444Z,3825
2017-09-11T13:25:42.375Z,3802
2017-09-11T13:26:42.435Z,3774
2017-09-11T13:27:42.367Z,3768
2017-09-11T13:28:42.384Z,3763
2017-09-11T13:29:42.378Z,3735
2017-09-11T13:30:42.345Z,3718
2017-09-11T13:31:42.400Z,3695
2017-09-11T13:32:42.440Z,3667
2017-09-11T13:33:42.448Z,3690
2017-09-11T13:34:42.350Z,3695
2017-09-11T13:35:42.451Z,3526
2017-09-11T13:36:42.419Z,3639
2017-09-11T13:37:42.459Z,3656
2017-09-11T13:38:42.414Z,894
2017-09-11T13:39:42.437Z,843
2017-09-11T13:40:42.364Z,911
2017-09-11T13:41:42.378Z,1170
2017-09-11T13:42:42.428Z,1141
2017-09-11T13:43:42.461Z,1237
2017-09-11T13:44:42.426Z,1411
2017-09-11T13:45:42.392Z,1541
2017-09-11T13:46:42.462Z,1681
2017-09-11T13:47:42.461Z,1625
2017-09-11T13:48:42.470Z,1350
2017-09-11T13:49:42.418Z,1147
2017-09-11T13:50:42.363Z,1001
2017-09-11T13:51:42.367Z,973
2017-09-11T13:52:42.439Z,967
2017-09-11T13:53:42.400Z,956
2017-09-11T13:54:42.474Z,894
2017-09-11T13:55:42.380Z,826
2017-09-11T13:56:42.415Z,748
2017-09-11T13:57:42.385Z,618
2017-09-11T13:58:42.390Z,523
2017-09-11T13:59:42.355Z,472
2017-09-11T14:00:42.358Z,450
2017-09-11T14:01:42.386Z,489
2017-09-11T14:02:42.419Z,624